Time;durP1;ratioP1;P1;durP2;ratioP2;P2;SDS_P1;SDS_P2;PMS_P1;PMS_P2;Temp;Humidity;BMP_temperature;BMP_pressure;BME280_temperature;BME280_humidity;BME280_pressure;Samples;Min_cycle;Max_cycle;Signal;HPM_P1;HPM_P2
2021/07/01 00:01:15;;;;;;;14.87;10.70;;;15.70;99.90;;;;;;5100111;28;20221;-55
2021/07/01 00:03:42;;;;;;;15.80;9.73;;;15.70;99.90;;;;;;5090804;28;20205;-45
2021/07/01 00:06:09;;;;;;;15.60;9.63;;;15.70;99.90;;;;;;5103885;28;20212;-50
2021/07/01 00:08:35;;;;;;;17.87;10.27;;;15.70;99.90;;;;;;5100545;28;20204;-44
2021/07/01 00:11:04;;;;;;;18.40;10.93;;;15.70;99.90;;;;;;5104202;28;20715;-45
2021/07/01 00:13:30;;;;;;;17.07;10.37;;;15.70;99.90;;;;;;5100274;28;20627;-53
2021/07/01 00:15:57;;;;;;;17.13;11.17;;;15.70;99.90;;;;;;5104339;28;20561;-44
2021/07/01 00:18:23;;;;;;;18.67;10.97;;;15.70;99.90;;;;;;5083050;28;20209;-50
2021/07/01 00:20:50;;;;;;;20.63;11.23;;;15.70;99.90;;;;;;5101977;28;20213;-46
2021/07/01 00:23:17;;;;;;;19.87;11.07;;;15.70;99.90;;;;;;5102431;28;20651;-52
2021/07/01 00:25:45;;;;;;;24.07;12.20;;;15.80;99.90;;;;;;5101534;28;20207;-44
2021/07/01 00:28:13;;;;;;;19.63;10.83;;;15.80;99.90;;;;;;5103780;28;20217;-53
2021/07/01 00:30:39;;;;;;;15.47;10.97;;;15.80;99.90;;;;;;5100230;28;20412;-45
2021/07/01 00:33:06;;;;;;;19.73;11.77;;;15.70;99.90;;;;;;5089390;28;20197;-48
2021/07/01 00:35:33;;;;;;;16.93;10.53;;;15.70;99.90;;;;;;5099128;28;20197;-44
2021/07/01 00:37:59;;;;;;;17.97;10.43;;;15.70;99.90;;;;;;5103985;28;20201;-45
2021/07/01 00:40:26;;;;;;;18.47;10.90;;;15.80;99.90;;;;;;5100719;28;20562;-49
2021/07/01 00:42:53;;;;;;;21.17;11.17;;;15.80;99.90;;;;;;5102849;28;20626;-44
2021/07/01 00:45:21;;;;;;;18.10;10.73;;;15.70;99.90;;;;;;5100849;28;20237;-52
2021/07/01 00:47:48;;;;;;;20.67;10.97;;;15.80;99.90;;;;;;5093949;28;20247;-47
2021/07/01 00:50:16;;;;;;;19.33;10.80;;;15.80;99.90;;;;;;5084459;28;20223;-52
2021/07/01 00:52:42;;;;;;;19.17;10.77;;;15.80;99.90;;;;;;5100487;28;20497;-49
2021/07/01 00:55:10;;;;;;;15.47;10.37;;;15.80;99.90;;;;;;5103919;28;20236;-48
2021/07/01 00:57:38;;;;;;;18.87;11.00;;;15.80;99.90;;;;;;5089745;28;20758;-47
2021/07/01 01:00:19;;;;;;;14.37;10.17;;;15.80;99.90;;;;;;5103280;28;20205;-45
2021/07/01 01:02:47;;;;;;;16.03;10.37;;;15.80;99.90;;;;;;5100027;28;20860;-45
2021/07/01 01:05:18;;;;;;;16.13;10.50;;;15.80;99.90;;;;;;5085557;28;20209;-53
2021/07/01 01:07:45;;;;;;;18.53;11.30;;;15.90;99.90;;;;;;5092474;28;20264;-47
2021/07/01 01:10:13;;;;;;;16.07;10.90;;;15.80;99.90;;;;;;5101673;28;20596;-54
2021/07/01 01:12:44;;;;;;;18.50;11.80;;;15.80;99.90;;;;;;5099752;28;20274;-49
2021/07/01 01:15:12;;;;;;;18.73;11.00;;;15.90;99.90;;;;;;5102220;28;20258;-53
2021/07/01 01:17:42;;;;;;;19.27;10.97;;;15.90;99.90;;;;;;5099847;28;20770;-50
2021/07/01 01:20:11;;;;;;;16.17;10.40;;;15.80;99.90;;;;;;5095231;28;20239;-47
2021/07/01 01:22:43;;;;;;;16.27;11.30;;;15.90;99.90;;;;;;5078919;28;20266;-46
2021/07/01 01:25:11;;;;;;;20.57;11.47;;;15.90;99.90;;;;;;5100017;28;20206;-50
2021/07/01 01:27:38;;;;;;;12.87;10.13;;;15.90;99.90;;;;;;5100757;28;20216;-49
2021/07/01 01:30:07;;;;;;;16.37;10.57;;;15.90;99.90;;;;;;5099321;28;20197;-51
2021/07/01 01:32:40;;;;;;;16.80;10.27;;;15.80;99.90;;;;;;5101438;28;20555;-45
2021/07/01 01:35:07;;;;;;;15.23;11.27;;;15.90;99.90;;;;;;5100573;28;20197;-50
2021/07/01 01:37:35;;;;;;;16.53;10.83;;;15.90;99.90;;;;;;5086427;28;20190;-45
2021/07/01 01:40:04;;;;;;;18.43;10.93;;;15.90;99.90;;;;;;5100965;28;20201;-50
2021/07/01 01:42:30;;;;;;;17.77;10.13;;;15.90;99.90;;;;;;5100707;28;20243;-48
2021/07/01 01:44:57;;;;;;;18.87;10.57;;;15.90;99.90;;;;;;5102364;28;20203;-53
2021/07/01 01:47:24;;;;;;;15.37;11.00;;;15.90;99.90;;;;;;5099586;28;20265;-49
2021/07/01 01:49:51;;;;;;;15.37;10.93;;;15.90;99.90;;;;;;5101413;28;20205;-46
2021/07/01 01:52:19;;;;;;;12.27;9.70;;;15.80;99.90;;;;;;5081568;28;20217;-48
2021/07/01 01:54:46;;;;;;;14.53;10.50;;;15.80;99.90;;;;;;5094072;28;20236;-44
2021/07/01 01:57:16;;;;;;;20.73;11.57;;;15.90;99.90;;;;;;5094871;28;20196;-50
2021/07/01 02:00:06;;;;;;;14.00;10.20;;;15.90;99.90;;;;;;5098724;28;20220;-48
2021/07/01 02:02:52;;;;;;;18.07;10.50;;;15.90;99.90;;;;;;5097826;28;20204;-44
2021/07/01 02:05:42;;;;;;;15.27;10.57;;;15.90;99.90;;;;;;5102621;28;20190;-47
2021/07/01 02:08:10;;;;;;;14.97;10.20;;;15.80;99.90;;;;;;5082554;28;20274;-51
2021/07/01 02:10:38;;;;;;;15.87;10.00;;;15.80;99.90;;;;;;5100558;28;20663;-44
2021/07/01 02:13:11;;;;;;;16.20;10.03;;;15.80;99.90;;;;;;5100399;28;20193;-50
2021/07/01 02:15:54;;;;;;;12.27;8.90;;;15.80;99.90;;;;;;5095702;28;20205;-46
2021/07/01 02:18:21;;;;;;;14.40;9.33;;;15.80;99.90;;;;;;5099137;28;20221;-47
2021/07/01 02:20:48;;;;;;;12.13;9.07;;;15.80;99.90;;;;;;5102025;28;20270;-45
2021/07/01 02:23:14;;;;;;;13.33;9.73;;;15.80;99.90;;;;;;5083124;28;20823;-54
2021/07/01 02:25:43;;;;;;;13.03;9.03;;;15.80;99.90;;;;;;5102400;28;20202;-45
2021/07/01 02:28:18;;;;;;;12.33;9.27;;;15.80;99.90;;;;;;5095245;28;20213;-47
2021/07/01 02:31:03;;;;;;;12.17;8.53;;;15.80;99.90;;;;;;5098116;28;20584;-53
2021/07/01 02:33:33;;;;;;;11.87;9.23;;;15.90;99.90;;;;;;5100113;28;20204;-45
2021/07/01 02:35:59;;;;;;;13.10;9.73;;;15.80;99.90;;;;;;5101688;28;20452;-52
2021/07/01 02:38:55;;;;;;;16.50;10.03;;;15.80;99.90;;;;;;5064054;28;20574;-52
2021/07/01 02:41:22;;;;;;;12.83;9.87;;;15.80;99.90;;;;;;5096991;28;20221;-46
2021/07/01 02:43:52;;;;;;;13.97;10.57;;;15.80;99.90;;;;;;5101097;28;20644;-44
2021/07/01 02:46:37;;;;;;;19.00;10.73;;;15.80;99.90;;;;;;5105882;28;20310;-44
2021/07/01 02:49:10;;;;;;;16.03;10.90;;;15.80;99.90;;;;;;5101234;28;20228;-52
2021/07/01 02:51:37;;;;;;;15.27;11.10;;;15.80;99.90;;;;;;5103926;28;20249;-45
2021/07/01 02:54:04;;;;;;;17.07;11.10;;;15.80;99.90;;;;;;5086718;28;20208;-49
2021/07/01 02:56:40;;;;;;;15.57;11.70;;;15.90;99.90;;;;;;5102045;28;20193;-47
2021/07/01 02:59:08;;;;;;;18.77;12.00;;;15.90;99.90;;;;;;5095361;28;20276;-54
2021/07/01 03:01:48;;;;;;;19.43;11.77;;;15.80;99.90;;;;;;5105504;28;20232;-47
2021/07/01 03:04:25;;;;;;;16.80;10.97;;;15.90;99.90;;;;;;5102679;27;20288;-49
2021/07/01 03:06:52;;;;;;;16.10;11.63;;;15.90;99.90;;;;;;5104157;28;20214;-48
2021/07/01 03:09:18;;;;;;;17.40;11.43;;;15.90;99.90;;;;;;5084719;28;20221;-47
2021/07/01 03:11:45;;;;;;;17.50;11.80;;;15.90;99.90;;;;;;5105065;28;20318;-45
2021/07/01 03:14:14;;;;;;;14.10;11.43;;;15.90;99.90;;;;;;5100698;28;20239;-51
2021/07/01 03:16:43;;;;;;;15.67;11.07;;;15.90;99.90;;;;;;5105775;28;20288;-48
2021/07/01 03:19:10;;;;;;;16.67;11.47;;;15.90;99.90;;;;;;5100675;28;20221;-51
2021/07/01 03:21:55;;;;;;;17.30;10.50;;;15.90;99.90;;;;;;5105486;28;20309;-51
2021/07/01 03:24:22;;;;;;;14.33;10.00;;;15.90;99.90;;;;;;5099759;28;20861;-48
2021/07/01 03:26:49;;;;;;;12.60;9.17;;;15.90;99.90;;;;;;5088670;28;20209;-48
2021/07/01 03:29:17;;;;;;;11.43;8.83;;;15.90;99.90;;;;;;5098951;28;20217;-44
2021/07/01 03:31:44;;;;;;;11.40;8.47;;;15.90;99.90;;;;;;5105030;28;20228;-43
2021/07/01 03:34:11;;;;;;;8.63;7.63;;;15.80;99.90;;;;;;5087547;28;20595;-52
2021/07/01 03:36:40;;;;;;;10.60;7.47;;;15.80;99.90;;;;;;5100786;28;20684;-45
2021/07/01 03:39:45;;;;;;;9.97;7.63;;;15.90;99.90;;;;;;5061069;28;20206;-44
2021/07/01 03:42:21;;;;;;;9.50;7.30;;;15.90;99.90;;;;;;5034502;28;20222;-44
2021/07/01 03:44:50;;;;;;;8.63;6.60;;;15.90;99.90;;;;;;5065975;28;20333;-46
2021/07/01 03:47:17;;;;;;;11.03;7.87;;;15.90;99.90;;;;;;5099341;28;20882;-47
2021/07/01 03:49:44;;;;;;;11.90;7.57;;;15.90;99.90;;;;;;5103216;28;20275;-45
2021/07/01 03:52:30;;;;;;;8.87;6.73;;;15.90;99.90;;;;;;5099437;28;20220;-44
2021/07/01 03:54:58;;;;;;;9.20;8.30;;;15.90;99.90;;;;;;5102470;28;20670;-52
2021/07/01 03:57:25;;;;;;;9.17;7.50;;;15.90;99.90;;;;;;5084744;28;20207;-46
2021/07/01 03:59:53;;;;;;;10.67;7.97;;;15.90;99.90;;;;;;5104401;28;20296;-45
2021/07/01 04:02:45;;;;;;;8.43;7.53;;;15.90;99.90;;;;;;5103710;28;20205;-45
2021/07/01 04:05:17;;;;;;;10.87;8.60;;;15.90;99.90;;;;;;5100861;28;20220;-49
2021/07/01 04:07:44;;;;;;;9.43;7.57;;;16.00;99.90;;;;;;5095592;28;20225;-46
2021/07/01 04:10:16;;;;;;;9.03;7.47;;;16.00;99.90;;;;;;5100767;28;20210;-51
2021/07/01 04:12:57;;;;;;;9.97;8.00;;;16.00;99.90;;;;;;5082185;28;20216;-51
2021/07/01 04:15:38;;;;;;;11.07;8.03;;;16.00;99.90;;;;;;5103675;28;20818;-46
2021/07/01 04:18:23;;;;;;;9.97;6.97;;;16.00;99.90;;;;;;5101041;28;20489;-48
2021/07/01 04:21:27;;;;;;;7.07;6.33;;;16.00;99.90;;;;;;5091032;28;20301;-46
2021/07/01 04:24:29;;;;;;;8.33;6.00;;;16.00;99.90;;;;;;5095796;28;20246;-46
2021/07/01 04:27:01;;;;;;;8.70;6.07;;;16.00;99.90;;;;;;5095129;28;20247;-51
2021/07/01 04:29:34;;;;;;;8.63;5.90;;;16.00;99.90;;;;;;5097244;28;20216;-45
2021/07/01 04:32:03;;;;;;;6.37;5.77;;;16.00;99.90;;;;;;5101195;28;20221;-49
2021/07/01 04:34:30;;;;;;;7.37;5.03;;;16.00;99.90;;;;;;5102070;28;20216;-47
2021/07/01 04:37:00;;;;;;;4.93;4.53;;;16.00;99.90;;;;;;5091717;28;20308;-50
2021/07/01 04:39:34;;;;;;;4.70;4.23;;;16.00;99.90;;;;;;5101528;28;20196;-47
2021/07/01 04:42:18;;;;;;;4.87;4.37;;;15.90;99.90;;;;;;5098531;28;20836;-47
2021/07/01 04:44:45;;;;;;;4.40;4.00;;;16.00;99.90;;;;;;5088417;28;20301;-49
2021/07/01 04:47:14;;;;;;;4.87;4.47;;;16.00;99.90;;;;;;5098642;28;20202;-51
2021/07/01 04:49:46;;;;;;;5.13;4.63;;;15.90;99.90;;;;;;5095928;28;20225;-48
2021/07/01 04:52:32;;;;;;;5.07;4.60;;;16.00;99.90;;;;;;5093595;28;20861;-54
2021/07/01 04:55:18;;;;;;;4.70;4.30;;;15.90;99.90;;;;;;5102724;28;20615;-45
2021/07/01 04:58:03;;;;;;;4.40;4.00;;;15.90;99.90;;;;;;5095544;28;20327;-48
2021/07/01 05:00:34;;;;;;;4.83;4.10;;;16.00;99.90;;;;;;5086025;28;20235;-50
2021/07/01 05:03:34;;;;;;;6.50;4.53;;;15.90;99.90;;;;;;5102496;28;20205;-52
2021/07/01 05:06:01;;;;;;;4.97;4.37;;;16.00;99.90;;;;;;5096389;28;20200;-50
2021/07/01 05:08:28;;;;;;;4.73;4.33;;;16.00;99.90;;;;;;5093375;28;20221;-47
2021/07/01 05:10:56;;;;;;;4.37;4.07;;;16.00;99.90;;;;;;5097897;28;20217;-44
2021/07/01 05:13:23;;;;;;;4.57;4.17;;;15.90;99.90;;;;;;5076405;28;20217;-45
2021/07/01 05:15:50;;;;;;;4.43;4.03;;;15.90;99.90;;;;;;5073212;28;20205;-54
2021/07/01 05:18:17;;;;;;;4.50;4.20;;;16.00;99.90;;;;;;5095630;28;20196;-48
2021/07/01 05:21:05;;;;;;;4.63;3.67;;;16.00;99.90;;;;;;5089708;28;20850;-46
2021/07/01 05:23:52;;;;;;;5.90;3.90;;;16.00;99.90;;;;;;5093033;28;20208;-45
2021/07/01 05:26:38;;;;;;;3.63;3.33;;;16.00;99.90;;;;;;5099625;28;20327;-50
2021/07/01 05:29:23;;;;;;;3.67;3.37;;;16.00;99.90;;;;;;5096532;28;20232;-49
2021/07/01 05:32:14;;;;;;;3.47;3.17;;;16.00;99.90;;;;;;5071813;28;20233;-44
2021/07/01 05:35:09;;;;;;;5.87;3.33;;;16.00;99.90;;;;;;5095299;28;20197;-45
2021/07/01 05:37:47;;;;;;;2.97;2.77;;;16.10;99.90;;;;;;5078595;28;20250;-53
2021/07/01 05:40:15;;;;;;;3.40;2.93;;;16.10;99.90;;;;;;5099249;28;20189;-44
2021/07/01 05:42:43;;;;;;;4.33;2.73;;;16.10;99.90;;;;;;5097525;28;20209;-53
2021/07/01 05:45:10;;;;;;;4.53;2.30;;;16.10;99.90;;;;;;5087993;28;20198;-47
2021/07/01 05:47:38;;;;;;;2.80;2.60;;;16.10;99.90;;;;;;5085575;28;20202;-53
2021/07/01 05:50:06;;;;;;;2.20;2.10;;;16.10;99.90;;;;;;5094810;28;20217;-49
2021/07/01 05:52:35;;;;;;;3.00;2.70;;;16.20;99.90;;;;;;5091393;28;20229;-53
2021/07/01 05:55:03;;;;;;;2.37;2.17;;;16.20;99.90;;;;;;5087563;28;20197;-46
2021/07/01 05:57:30;;;;;;;2.00;1.80;;;16.20;99.90;;;;;;5102474;28;20570;-46
2021/07/01 05:59:57;;;;;;;3.57;2.10;;;16.20;99.90;;;;;;5086276;28;20194;-44
2021/07/01 06:02:24;;;;;;;2.43;2.10;;;16.20;99.90;;;;;;5085409;28;20229;-46
2021/07/01 06:04:51;;;;;;;2.93;2.37;;;16.30;99.90;;;;;;5087242;28;20194;-50
2021/07/01 06:07:22;;;;;;;2.13;1.93;;;16.30;99.90;;;;;;5093113;28;20518;-47
2021/07/01 06:09:52;;;;;;;2.20;2.00;;;16.30;99.90;;;;;;5089712;28;20213;-53
2021/07/01 06:12:22;;;;;;;4.63;2.50;;;16.30;99.90;;;;;;5102328;28;20313;-51
2021/07/01 06:14:50;;;;;;;1.97;1.87;;;16.40;99.90;;;;;;5099050;28;20197;-53
2021/07/01 06:17:18;;;;;;;2.67;2.40;;;16.30;99.90;;;;;;5092166;28;20666;-45
2021/07/01 06:19:49;;;;;;;2.77;2.57;;;16.40;99.90;;;;;;5080093;28;20883;-53
2021/07/01 06:22:16;;;;;;;2.53;2.17;;;16.40;99.90;;;;;;5104869;28;20308;-46
2021/07/01 06:24:43;;;;;;;2.27;2.07;;;16.40;99.90;;;;;;5092365;27;20216;-50
2021/07/01 06:27:10;;;;;;;2.57;2.23;;;16.40;99.90;;;;;;5105416;28;20398;-44
2021/07/01 06:29:40;;;;;;;1.97;1.87;;;16.40;99.90;;;;;;5104423;28;20227;-51
2021/07/01 06:32:07;;;;;;;2.53;1.80;;;16.40;99.90;;;;;;5090638;28;20225;-46
2021/07/01 06:34:33;;;;;;;2.43;2.10;;;16.40;99.90;;;;;;5086733;28;20570;-51
2021/07/01 06:37:03;;;;;;;2.43;2.23;;;16.40;99.90;;;;;;5088538;28;20200;-48
2021/07/01 06:39:51;;;;;;;2.40;2.00;;;16.40;99.90;;;;;;5084660;28;20283;-45
2021/07/01 06:42:45;;;;;;;2.30;2.10;;;16.40;99.90;;;;;;5091270;28;20204;-48
2021/07/01 06:45:33;;;;;;;2.70;2.50;;;16.40;99.90;;;;;;5087410;28;20228;-46
2021/07/01 06:48:33;;;;;;;2.60;2.40;;;16.40;99.90;;;;;;5027684;28;20367;-49
2021/07/01 06:51:20;;;;;;;2.00;1.90;;;16.40;99.90;;;;;;5082570;28;20679;-46
2021/07/01 06:54:08;;;;;;;2.27;2.10;;;16.50;99.90;;;;;;5097359;28;20278;-53
2021/07/01 06:56:55;;;;;;;2.10;2.00;;;16.50;99.90;;;;;;5040911;28;21137;-50
2021/07/01 06:59:22;;;;;;;2.67;2.47;;;16.50;99.90;;;;;;5099003;28;20292;-48
2021/07/01 07:01:50;;;;;;;2.53;2.33;;;16.50;99.90;;;;;;5095824;28;20224;-48
2021/07/01 07:04:18;;;;;;;3.47;2.20;;;16.50;99.90;;;;;;5079819;28;20670;-54
2021/07/01 07:06:46;;;;;;;1.83;1.73;;;16.50;99.90;;;;;;5092613;28;20213;-49
2021/07/01 07:09:14;;;;;;;2.90;2.07;;;16.50;99.90;;;;;;5100021;28;20201;-53
2021/07/01 07:11:41;;;;;;;2.10;1.90;;;16.60;99.90;;;;;;5096672;28;20732;-48
2021/07/01 07:14:09;;;;;;;3.13;2.10;;;16.60;99.90;;;;;;5099972;28;20203;-52
2021/07/01 07:16:39;;;;;;;3.90;2.07;;;16.70;99.90;;;;;;5096070;28;20193;-51
2021/07/01 07:19:08;;;;;;;1.93;1.60;;;16.70;99.90;;;;;;5085581;28;20198;-54
2021/07/01 07:21:39;;;;;;;1.90;1.80;;;16.80;99.90;;;;;;5075002;28;21040;-47
2021/07/01 07:24:06;;;;;;;1.70;1.60;;;16.80;99.90;;;;;;5094354;28;20201;-52
2021/07/01 07:26:33;;;;;;;1.80;1.70;;;16.90;99.90;;;;;;5096643;28;20193;-45
2021/07/01 07:29:01;;;;;;;2.00;1.90;;;16.90;99.90;;;;;;5101631;28;20216;-54
2021/07/01 07:31:30;;;;;;;2.50;2.30;;;16.90;99.90;;;;;;5093038;28;20225;-45
2021/07/01 07:33:59;;;;;;;2.97;2.67;;;17.00;99.90;;;;;;5098747;28;20205;-45
2021/07/01 07:36:28;;;;;;;2.50;2.30;;;17.00;99.90;;;;;;5086709;28;20433;-52
2021/07/01 07:38:56;;;;;;;2.33;2.13;;;17.10;99.90;;;;;;5093935;28;20666;-44
2021/07/01 07:41:23;;;;;;;2.27;2.13;;;17.10;99.90;;;;;;5080368;28;20832;-48
2021/07/01 07:43:51;;;;;;;2.77;2.57;;;17.20;99.90;;;;;;5087922;28;20224;-49
2021/07/01 07:46:19;;;;;;;3.17;2.97;;;17.20;99.90;;;;;;5092708;28;20193;-51
2021/07/01 07:48:46;;;;;;;3.07;2.87;;;17.20;99.90;;;;;;5096358;28;20550;-51
2021/07/01 07:51:16;;;;;;;3.17;2.97;;;17.30;99.90;;;;;;5091388;28;20904;-49
2021/07/01 07:53:47;;;;;;;3.30;3.00;;;17.30;99.90;;;;;;5083128;28;20205;-49
2021/07/01 07:56:17;;;;;;;3.10;2.90;;;17.40;99.90;;;;;;5094376;28;20193;-50
2021/07/01 07:58:47;;;;;;;4.67;3.20;;;17.30;99.90;;;;;;5095299;28;20205;-45
2021/07/01 08:01:14;;;;;;;3.77;3.47;;;17.30;99.90;;;;;;5099640;28;20213;-48
2021/07/01 08:03:43;;;;;;;3.50;3.30;;;17.40;99.90;;;;;;5090713;28;20205;-48
2021/07/01 08:06:11;;;;;;;4.07;3.73;;;17.50;99.90;;;;;;5089477;28;20201;-52
2021/07/01 08:08:41;;;;;;;3.83;3.53;;;17.50;99.90;;;;;;5088677;28;20212;-45
2021/07/01 08:11:10;;;;;;;4.20;3.90;;;17.60;99.90;;;;;;5089297;28;20221;-52
2021/07/01 08:13:39;;;;;;;5.03;4.60;;;17.60;99.90;;;;;;5092693;28;20198;-47
2021/07/01 08:16:07;;;;;;;4.70;4.30;;;17.70;99.90;;;;;;5100201;28;20265;-52
2021/07/01 08:18:38;;;;;;;5.33;4.03;;;17.70;99.90;;;;;;5097889;28;20538;-45
2021/07/01 08:21:05;;;;;;;5.10;4.53;;;17.80;99.90;;;;;;5087329;28;20576;-52
2021/07/01 08:23:34;;;;;;;5.23;4.77;;;17.90;99.90;;;;;;5085299;28;20204;-48
2021/07/01 08:26:03;;;;;;;5.17;4.67;;;17.90;99.90;;;;;;5089868;28;20202;-47
2021/07/01 08:28:32;;;;;;;4.63;4.23;;;17.90;99.90;;;;;;5094148;28;20224;-44
2021/07/01 08:31:05;;;;;;;4.63;4.33;;;18.00;99.90;;;;;;5094572;28;20862;-53
2021/07/01 08:33:36;;;;;;;5.03;4.70;;;18.00;99.90;;;;;;5094488;28;20205;-48
2021/07/01 08:36:04;;;;;;;5.20;4.80;;;18.00;99.90;;;;;;5088193;28;20274;-52
2021/07/01 08:38:35;;;;;;;5.47;4.97;;;18.10;99.90;;;;;;5083532;28;20909;-46
2021/07/01 08:41:13;;;;;;;5.20;4.70;;;18.10;99.90;;;;;;5099328;28;20213;-51
2021/07/01 08:43:54;;;;;;;5.17;4.77;;;18.20;99.90;;;;;;5096324;28;20203;-50
2021/07/01 08:46:24;;;;;;;6.90;4.77;;;18.20;99.90;;;;;;5092249;28;20812;-48
2021/07/01 08:49:04;;;;;;;6.03;5.40;;;18.20;99.90;;;;;;5101552;28;20192;-47
2021/07/01 08:51:35;;;;;;;5.17;4.70;;;18.20;99.90;;;;;;5091921;28;20229;-47
2021/07/01 08:54:21;;;;;;;6.07;5.57;;;18.20;99.90;;;;;;5081847;28;20201;-55
2021/07/01 08:56:49;;;;;;;6.00;5.50;;;18.20;99.90;;;;;;5091377;28;20201;-47
2021/07/01 08:59:19;;;;;;;5.80;5.20;;;18.20;99.90;;;;;;5086006;28;20198;-46
2021/07/01 09:01:53;;;;;;;10.37;5.27;;;18.20;99.90;;;;;;5096280;28;20216;-46
2021/07/01 09:04:23;;;;;;;6.47;5.73;;;18.20;99.90;;;;;;5093779;28;20855;-45
2021/07/01 09:06:59;;;;;;;6.33;5.30;;;18.30;99.90;;;;;;5096376;28;20570;-50
2021/07/01 09:09:31;;;;;;;6.23;5.73;;;18.30;99.90;;;;;;5095859;28;20213;-46
2021/07/01 09:12:02;;;;;;;6.10;5.53;;;18.30;99.90;;;;;;5084525;28;20793;-54
2021/07/01 09:14:31;;;;;;;5.80;5.37;;;18.30;99.90;;;;;;5086943;28;20911;-48
2021/07/01 09:17:03;;;;;;;8.60;5.67;;;18.30;99.90;;;;;;5096865;28;20232;-49
2021/07/01 09:19:30;;;;;;;6.40;5.70;;;18.30;99.90;;;;;;5094502;28;20185;-47
2021/07/01 09:21:59;;;;;;;5.43;5.03;;;18.40;99.90;;;;;;5087245;28;20272;-54
2021/07/01 09:24:28;;;;;;;6.10;5.47;;;18.40;99.90;;;;;;5098851;28;20877;-45
2021/07/01 09:26:57;;;;;;;5.93;5.43;;;18.50;99.90;;;;;;5086069;28;20213;-55
2021/07/01 09:29:26;;;;;;;7.93;5.60;;;18.50;99.90;;;;;;5081299;28;20241;-45
2021/07/01 09:31:55;;;;;;;6.27;5.53;;;18.60;99.90;;;;;;5094070;28;20227;-54
2021/07/01 09:34:22;;;;;;;5.67;5.17;;;18.60;99.90;;;;;;5093515;28;20205;-51
2021/07/01 09:36:49;;;;;;;5.73;5.23;;;18.70;99.90;;;;;;5088796;28;20213;-54
2021/07/01 09:39:16;;;;;;;6.87;5.10;;;18.70;99.90;;;;;;5101087;28;20658;-48
2021/07/01 09:41:43;;;;;;;7.63;5.10;;;18.70;99.90;;;;;;5091305;28;20224;-54
2021/07/01 09:44:13;;;;;;;6.10;5.60;;;18.80;99.90;;;;;;5083083;28;20223;-48
2021/07/01 09:46:46;;;;;;;6.47;5.77;;;18.80;99.90;;;;;;5095494;28;20197;-54
2021/07/01 09:49:19;;;;;;;5.37;4.67;;;18.80;99.90;;;;;;5093629;28;20197;-47
2021/07/01 09:51:48;;;;;;;5.93;4.60;;;18.80;99.90;;;;;;5097402;28;20245;-55
2021/07/01 09:54:17;;;;;;;5.57;5.07;;;18.80;99.90;;;;;;5103283;28;20209;-47
2021/07/01 09:56:51;;;;;;;6.10;5.10;;;18.80;99.90;;;;;;5104734;28;20197;-50
2021/07/01 09:59:22;;;;;;;5.33;4.93;;;18.70;99.90;;;;;;5090470;28;20225;-48
2021/07/01 10:01:48;;;;;;;6.97;4.97;;;18.70;99.90;;;;;;5091392;28;20216;-52
2021/07/01 10:04:17;;;;;;;5.60;5.10;;;18.70;99.90;;;;;;5099688;28;20216;-47
2021/07/01 10:06:43;;;;;;;5.47;5.07;;;18.80;99.90;;;;;;5093296;28;20212;-55
2021/07/01 10:09:28;;;;;;;5.60;5.10;;;18.80;99.90;;;;;;5090843;28;20204;-49
2021/07/01 10:11:54;;;;;;;5.83;4.90;;;19.00;99.90;;;;;;5098568;28;20197;-48
2021/07/01 10:14:23;;;;;;;5.87;5.37;;;19.00;99.90;;;;;;5091208;28;20584;-45
2021/07/01 10:16:50;;;;;;;5.93;4.90;;;19.10;99.90;;;;;;5089686;28;20682;-52
2021/07/01 10:19:22;;;;;;;5.57;5.00;;;19.20;99.90;;;;;;5095921;28;20561;-45
2021/07/01 10:22:03;;;;;;;7.30;5.23;;;19.20;99.90;;;;;;5096067;28;20224;-49
2021/07/01 10:24:32;;;;;;;5.40;4.90;;;19.20;99.90;;;;;;5090458;28;20274;-45
2021/07/01 10:27:01;;;;;;;5.70;5.20;;;19.30;99.90;;;;;;5098497;28;20276;-45
2021/07/01 10:29:37;;;;;;;5.57;5.07;;;19.20;99.90;;;;;;5087080;28;20201;-45
2021/07/01 10:32:07;;;;;;;5.00;4.60;;;19.30;99.90;;;;;;5096487;28;20228;-45
2021/07/01 10:34:50;;;;;;;4.90;4.50;;;19.30;99.90;;;;;;5093283;28;20209;-52
2021/07/01 10:37:20;;;;;;;8.43;4.67;;;19.30;99.90;;;;;;5101440;28;20239;-47
2021/07/01 10:39:47;;;;;;;5.00;4.50;;;19.40;99.90;;;;;;5091983;28;20202;-54
2021/07/01 10:42:15;;;;;;;5.10;4.57;;;19.50;99.90;;;;;;5105141;28;20209;-45
2021/07/01 10:44:42;;;;;;;6.47;5.10;;;19.50;99.90;;;;;;5087797;28;20219;-49
2021/07/01 10:47:24;;;;;;;5.53;5.00;;;19.60;99.90;;;;;;5095731;28;20194;-46
2021/07/01 10:49:52;;;;;;;5.73;4.57;;;19.70;99.90;;;;;;5077211;28;20237;-51
2021/07/01 10:52:20;;;;;;;7.07;3.93;;;19.60;99.90;;;;;;5103851;28;20228;-47
2021/07/01 10:54:57;;;;;;;5.10;4.60;;;19.70;99.90;;;;;;5092566;28;20258;-51
2021/07/01 10:57:28;;;;;;;4.33;3.93;;;19.70;99.90;;;;;;5084497;28;20203;-45
2021/07/01 10:59:56;;;;;;;5.90;4.30;;;19.70;99.90;;;;;;5084150;28;20476;-46
2021/07/01 11:02:25;;;;;;;5.00;4.50;;;19.80;99.90;;;;;;5093559;28;20214;-47
2021/07/01 11:04:55;;;;;;;5.77;4.10;;;19.90;99.90;;;;;;5079800;28;20293;-53
2021/07/01 11:07:22;;;;;;;5.13;3.97;;;20.00;99.90;;;;;;5091638;28;20216;-46
2021/07/01 11:09:52;;;;;;;5.87;4.03;;;20.10;99.90;;;;;;5092833;28;20654;-55
2021/07/01 11:12:21;;;;;;;5.00;3.60;;;20.20;99.90;;;;;;5101071;28;20253;-45
2021/07/01 11:14:50;;;;;;;3.87;3.57;;;20.20;99.90;;;;;;5081944;28;20202;-51
2021/07/01 11:17:17;;;;;;;4.17;3.77;;;20.30;99.90;;;;;;5098606;28;20198;-45
2021/07/01 11:19:45;;;;;;;4.77;4.07;;;20.30;99.90;;;;;;5099377;28;20201;-52
2021/07/01 11:22:15;;;;;;;7.60;3.50;;;20.30;99.90;;;;;;5088245;28;20342;-48
2021/07/01 11:24:44;;;;;;;3.33;3.13;;;20.30;99.90;;;;;;5084987;28;21008;-47
2021/07/01 11:27:11;;;;;;;4.10;3.80;;;20.30;99.90;;;;;;5093777;28;20198;-47
2021/07/01 11:29:39;;;;;;;4.17;3.53;;;20.40;99.90;;;;;;5094368;28;20197;-45
2021/07/01 11:32:19;;;;;;;5.63;3.30;;;20.50;99.90;;;;;;5083698;28;20221;-52
2021/07/01 11:34:47;;;;;;;3.70;3.40;;;20.60;99.90;;;;;;5102020;28;20196;-48
2021/07/01 11:37:17;;;;;;;3.60;3.30;;;20.80;99.90;;;;;;5081487;28;20205;-51
2021/07/01 11:39:44;;;;;;;4.30;3.90;;;21.00;99.90;;;;;;5098584;28;20197;-45
2021/07/01 11:42:12;;;;;;;4.13;3.47;;;21.20;99.90;;;;;;5088560;28;20245;-51
2021/07/01 11:44:40;;;;;;;4.77;3.80;;;21.40;99.90;;;;;;5087806;28;20220;-47
2021/07/01 11:47:09;;;;;;;3.60;3.30;;;21.60;99.90;;;;;;5087613;28;20571;-50
2021/07/01 11:49:36;;;;;;;3.47;3.10;;;21.60;99.90;;;;;;5099675;28;20220;-46
2021/07/01 11:52:04;;;;;;;3.13;2.92;;;21.50;99.90;;;;;;5087522;28;20217;-53
2021/07/01 11:54:32;;;;;;;3.90;3.20;;;21.40;99.90;;;;;;5099853;28;20276;-47
2021/07/01 11:57:00;;;;;;;3.55;3.22;;;21.30;99.90;;;;;;5092016;28;20207;-45
2021/07/01 11:59:28;;;;;;;3.78;2.60;;;21.30;99.90;;;;;;5094214;28;20194;-46
2021/07/01 12:01:56;;;;;;;2.80;2.58;;;21.20;99.90;;;;;;5100631;28;20220;-45
2021/07/01 12:04:27;;;;;;;2.83;2.55;;;21.30;99.90;;;;;;5084464;28;20787;-55
2021/07/01 12:07:02;;;;;;;4.05;3.63;;;21.40;99.90;;;;;;5088205;28;20229;-45
2021/07/01 12:09:33;;;;;;;2.70;2.50;;;21.40;99.90;;;;;;5090003;28;20193;-45
2021/07/01 12:12:20;;;;;;;2.60;2.40;;;21.40;99.90;;;;;;5091348;28;20217;-45
2021/07/01 12:14:49;;;;;;;3.30;2.55;;;21.40;99.90;;;;;;5102445;28;20278;-47
2021/07/01 12:17:51;;;;;;;2.70;2.50;;;21.30;99.90;;;;;;5098727;28;20561;-56
2021/07/01 12:20:29;;;;;;;3.08;2.50;;;21.30;99.90;;;;;;5077601;28;20204;-55
2021/07/01 12:22:57;;;;;;;2.73;2.53;;;21.30;99.90;;;;;;5093836;28;20201;-46
2021/07/01 12:25:44;;;;;;;3.53;2.70;;;21.30;99.90;;;;;;5094320;28;20192;-51
2021/07/01 12:28:12;;;;;;;3.03;2.80;;;21.30;99.90;;;;;;5097063;28;20201;-56
2021/07/01 12:30:51;;;;;;;2.90;2.50;;;21.30;99.90;;;;;;5092925;28;20210;-48
2021/07/01 12:33:41;;;;;;;2.30;2.10;;;21.30;99.90;;;;;;5081695;28;20666;-57
2021/07/01 12:36:13;;;;;;;2.35;2.15;;;21.30;99.90;;;;;;5100814;28;20856;-53
2021/07/01 12:38:42;;;;;;;3.78;2.10;;;21.30;99.90;;;;;;5087414;28;20208;-56
2021/07/01 12:41:11;;;;;;;3.08;2.45;;;21.20;99.90;;;;;;5095921;28;20220;-55
2021/07/01 12:43:54;;;;;;;2.67;2.10;;;21.20;99.90;;;;;;5092217;28;20231;-53
2021/07/01 12:47:15;;;;;;;2.00;1.90;;;21.20;99.90;;;;;;5092669;28;20281;-56
2021/07/01 12:49:52;;;;;;;3.05;2.30;;;21.20;99.90;;;;;;5078738;28;20504;-45
2021/07/01 12:52:23;;;;;;;2.30;2.13;;;21.20;99.90;;;;;;5094185;28;20560;-56
2021/07/01 12:54:55;;;;;;;2.30;2.10;;;21.30;99.90;;;;;;5094387;28;20205;-48
2021/07/01 12:57:23;;;;;;;2.38;2.00;;;21.30;99.90;;;;;;5087735;28;20193;-55
2021/07/01 12:59:52;;;;;;;2.17;2.08;;;21.40;99.90;;;;;;5093577;28;20193;-45
2021/07/01 13:02:31;;;;;;;2.22;2.03;;;21.40;99.90;;;;;;5100166;28;20564;-54
2021/07/01 13:04:59;;;;;;;3.33;2.08;;;21.40;99.90;;;;;;5088531;28;20213;-48